Time;durP1;ratioP1;P1;durP2;ratioP2;P2;SDS_P1;SDS_P2;PMS_P1;PMS_P2;Temp;Humidity;BMP_temperature;BMP_pressure;BME280_temperature;BME280_humidity;BME280_pressure;Samples;Min_cycle;Max_cycle;Signal;HPM_P1;HPM_P2
2023/12/01 00:02:00;;;;;;;29.70;9.25;;;0.70;99.90;;;;;;6180181;23;20063;-76
2023/12/01 00:04:25;;;;;;;25.55;9.68;;;0.70;99.90;;;;;;6179153;23;20368;-76
2023/12/01 00:06:51;;;;;;;23.45;10.48;;;0.70;99.90;;;;;;6181193;23;20013;-77
2023/12/01 00:09:16;;;;;;;29.52;10.30;;;0.80;99.90;;;;;;6184719;23;20024;-75
2023/12/01 00:11:42;;;;;;;37.63;11.30;;;0.80;99.90;;;;;;6182840;23;20439;-76
2023/12/01 00:14:08;;;;;;;28.50;9.38;;;0.80;99.90;;;;;;6180438;23;20013;-76
2023/12/01 00:16:33;;;;;;;27.55;9.50;;;0.80;99.90;;;;;;6179195;23;20075;-77
2023/12/01 00:18:59;;;;;;;20.88;8.60;;;0.80;99.90;;;;;;6179959;23;20374;-76
2023/12/01 00:21:24;;;;;;;21.38;7.38;;;0.80;99.90;;;;;;6178950;23;20084;-76
2023/12/01 00:23:50;;;;;;;23.65;8.93;;;0.80;99.90;;;;;;6180471;23;20017;-77
2023/12/01 00:26:15;;;;;;;22.42;8.35;;;0.80;99.90;;;;;;6179953;23;20014;-76
2023/12/01 00:28:41;;;;;;;24.63;7.60;;;0.80;99.90;;;;;;6178977;23;20032;-76
2023/12/01 00:31:07;;;;;;;22.17;8.35;;;0.80;99.90;;;;;;6178704;23;20012;-74
2023/12/01 00:33:32;;;;;;;21.70;9.05;;;0.80;99.90;;;;;;6176710;23;20005;-76
2023/12/01 00:36:00;;;;;;;20.33;8.48;;;0.70;99.90;;;;;;6178993;23;20017;-76
2023/12/01 00:38:26;;;;;;;21.08;7.40;;;0.60;99.90;;;;;;6177170;23;20025;-76
2023/12/01 00:40:51;;;;;;;22.20;7.32;;;0.60;99.90;;;;;;6178923;23;20075;-75
2023/12/01 00:43:17;;;;;;;19.85;7.72;;;0.60;99.90;;;;;;6178251;23;20013;-75
2023/12/01 00:45:43;;;;;;;18.40;7.20;;;0.60;99.90;;;;;;6177204;23;20525;-77
2023/12/01 00:48:09;;;;;;;19.23;6.78;;;0.60;99.90;;;;;;6177630;23;20088;-76
2023/12/01 00:50:34;;;;;;;17.35;7.00;;;0.60;99.90;;;;;;6177162;23;20021;-76
2023/12/01 00:53:00;;;;;;;13.88;6.30;;;0.60;99.90;;;;;;6179890;23;20024;-75
2023/12/01 00:55:25;;;;;;;16.58;5.40;;;0.60;99.90;;;;;;6178931;23;20434;-76
2023/12/01 00:57:53;;;;;;;16.38;5.78;;;0.50;99.90;;;;;;6178389;23;20001;-75
2023/12/01 01:00:20;;;;;;;14.00;5.70;;;0.50;99.90;;;;;;6181105;23;20081;-76
2023/12/01 01:02:46;;;;;;;15.77;6.47;;;0.50;99.90;;;;;;6182188;23;20009;-77
2023/12/01 01:05:11;;;;;;;16.30;5.70;;;0.50;99.90;;;;;;6179618;23;20011;-76
2023/12/01 01:07:37;;;;;;;17.02;7.30;;;0.50;99.90;;;;;;6176649;23;20398;-76
2023/12/01 01:10:02;;;;;;;17.42;6.05;;;0.40;99.90;;;;;;6178264;23;20089;-77
2023/12/01 01:12:28;;;;;;;17.98;5.97;;;0.50;99.90;;;;;;6177151;23;20017;-76
2023/12/01 01:14:54;;;;;;;17.08;5.45;;;0.40;99.90;;;;;;6178363;23;20523;-76
2023/12/01 01:17:19;;;;;;;17.98;6.15;;;0.50;99.90;;;;;;6177358;23;20005;-76
2023/12/01 01:19:45;;;;;;;17.17;6.22;;;0.50;99.90;;;;;;6179662;23;20009;-79
2023/12/01 01:22:10;;;;;;;18.25;6.20;;;0.50;99.90;;;;;;6177849;23;20148;-75
2023/12/01 01:24:36;;;;;;;16.63;6.43;;;0.50;99.90;;;;;;6178188;23;20040;-76
2023/12/01 01:27:02;;;;;;;19.00;6.03;;;0.50;99.90;;;;;;6178325;23;20016;-77
2023/12/01 01:29:28;;;;;;;22.58;7.50;;;0.50;99.90;;;;;;6177502;23;20009;-76
2023/12/01 01:31:53;;;;;;;22.42;7.35;;;0.50;99.90;;;;;;6179874;23;20012;-76
2023/12/01 01:34:19;;;;;;;28.90;7.53;;;0.50;99.90;;;;;;6178442;23;20089;-76
2023/12/01 01:36:44;;;;;;;28.23;8.40;;;0.40;99.90;;;;;;6179757;23;20036;-76
2023/12/01 01:39:11;;;;;;;20.70;7.30;;;0.50;99.90;;;;;;6177455;23;20170;-76
2023/12/01 01:41:36;;;;;;;30.08;9.63;;;0.50;99.90;;;;;;6176998;23;20013;-76
2023/12/01 01:44:02;;;;;;;28.95;9.85;;;0.60;99.90;;;;;;6177647;23;20019;-76
2023/12/01 01:46:28;;;;;;;26.75;7.97;;;0.50;99.90;;;;;;6178150;23;20092;-77
2023/12/01 01:48:55;;;;;;;30.75;9.57;;;0.40;99.90;;;;;;6177427;23;20048;-75
2023/12/01 01:51:21;;;;;;;23.45;9.70;;;0.50;99.90;;;;;;6178633;23;20443;-76
2023/12/01 01:53:47;;;;;;;25.30;9.70;;;0.50;99.90;;;;;;6178006;23;20435;-76
2023/12/01 01:56:14;;;;;;;25.45;9.40;;;0.40;99.90;;;;;;6176824;23;20017;-77
2023/12/01 01:58:41;;;;;;;23.63;7.60;;;0.50;99.90;;;;;;6176972;23;20009;-76
2023/12/01 02:01:07;;;;;;;23.48;8.65;;;0.50;99.90;;;;;;6180421;23;20005;-77
2023/12/01 02:03:34;;;;;;;25.88;9.13;;;0.50;99.90;;;;;;6177128;23;20095;-76
2023/12/01 02:06:06;;;;;;;21.70;7.43;;;0.50;99.90;;;;;;6177676;23;20071;-76
2023/12/01 02:08:33;;;;;;;24.48;9.13;;;0.60;99.90;;;;;;6176647;23;20009;-76
2023/12/01 02:11:00;;;;;;;23.73;7.97;;;0.60;99.90;;;;;;6178135;23;20052;-76
2023/12/01 02:13:26;;;;;;;27.02;8.35;;;0.60;99.90;;;;;;6177964;23;20060;-76
2023/12/01 02:15:52;;;;;;;20.45;8.60;;;0.60;99.90;;;;;;6178110;23;20004;-77
2023/12/01 02:18:26;;;;;;;21.15;8.10;;;0.50;99.90;;;;;;6177902;23;20005;-76
2023/12/01 02:20:54;;;;;;;24.50;8.35;;;0.50;99.90;;;;;;6177114;23;20422;-76
2023/12/01 02:23:20;;;;;;;21.75;8.20;;;0.50;99.90;;;;;;6176688;23;20466;-77
2023/12/01 02:25:46;;;;;;;18.65;7.47;;;0.60;99.90;;;;;;6179484;23;20009;-76
2023/12/01 02:28:12;;;;;;;19.25;6.97;;;0.60;99.90;;;;;;6181770;23;20390;-76
2023/12/01 02:30:38;;;;;;;21.77;7.60;;;0.60;99.90;;;;;;6178392;23;21457;-76
2023/12/01 02:33:04;;;;;;;16.75;6.25;;;0.70;99.90;;;;;;6179933;23;20005;-75
2023/12/01 02:35:30;;;;;;;18.27;6.13;;;0.60;99.90;;;;;;6180361;23;20039;-76
2023/12/01 02:38:04;;;;;;;16.52;5.68;;;0.60;99.90;;;;;;6181678;23;20096;-76
2023/12/01 02:40:30;;;;;;;18.27;5.88;;;0.60;99.90;;;;;;6178610;23;20524;-76
2023/12/01 02:42:55;;;;;;;16.83;6.65;;;0.60;99.90;;;;;;6181767;23;20017;-76
2023/12/01 02:45:21;;;;;;;18.70;7.25;;;0.60;99.90;;;;;;6179952;23;20091;-76
2023/12/01 02:47:49;;;;;;;20.83;6.68;;;0.60;99.90;;;;;;6179286;23;20323;-76
2023/12/01 02:50:16;;;;;;;18.42;6.80;;;0.60;99.90;;;;;;6181634;23;20012;-76
2023/12/01 02:52:42;;;;;;;21.05;7.22;;;0.60;99.90;;;;;;6177968;23;20001;-76
2023/12/01 02:55:08;;;;;;;15.68;5.72;;;0.70;99.90;;;;;;6179404;23;20009;-76
2023/12/01 02:57:35;;;;;;;19.63;7.43;;;0.70;99.90;;;;;;6178198;23;20009;-76
2023/12/01 03:00:05;;;;;;;18.38;6.38;;;0.70;99.90;;;;;;6179240;23;20035;-76
2023/12/01 03:02:32;;;;;;;16.33;5.75;;;0.60;99.90;;;;;;6178391;23;20009;-77
2023/12/01 03:04:58;;;;;;;22.40;7.00;;;0.60;99.90;;;;;;6181348;23;20009;-76
2023/12/01 03:07:23;;;;;;;19.13;6.43;;;0.70;99.90;;;;;;6178100;23;20021;-76
2023/12/01 03:09:49;;;;;;;17.27;6.82;;;0.60;99.90;;;;;;6180762;23;20398;-75
2023/12/01 03:12:14;;;;;;;22.77;7.97;;;0.60;99.90;;;;;;6179458;23;20084;-75
2023/12/01 03:14:40;;;;;;;22.58;6.70;;;0.60;99.90;;;;;;6178311;23;20005;-76
2023/12/01 03:17:06;;;;;;;16.45;5.40;;;0.60;99.90;;;;;;6178951;23;20005;-76
2023/12/01 03:19:31;;;;;;;17.52;6.53;;;0.60;99.90;;;;;;6178159;23;20087;-77
2023/12/01 03:21:57;;;;;;;18.10;5.90;;;0.60;99.90;;;;;;6178872;23;20009;-76
2023/12/01 03:24:22;;;;;;;22.30;7.38;;;0.60;99.90;;;;;;6178175;23;20009;-77
2023/12/01 03:26:48;;;;;;;18.05;6.22;;;0.60;99.90;;;;;;6180908;23;20009;-77
2023/12/01 03:29:14;;;;;;;17.35;5.75;;;0.60;99.90;;;;;;6181096;23;20016;-77
2023/12/01 03:31:39;;;;;;;20.15;6.57;;;0.70;99.90;;;;;;6177979;23;20093;-75
2023/12/01 03:34:06;;;;;;;20.10;6.40;;;0.70;99.90;;;;;;6179772;23;20518;-76
2023/12/01 03:36:32;;;;;;;21.08;6.03;;;0.70;99.90;;;;;;6178240;23;20012;-77
2023/12/01 03:38:58;;;;;;;18.15;7.20;;;0.60;99.90;;;;;;6178814;23;20013;-76
2023/12/01 03:41:23;;;;;;;23.13;6.05;;;0.60;99.90;;;;;;6177647;23;20015;-76
2023/12/01 03:43:49;;;;;;;17.77;6.80;;;0.70;99.90;;;;;;6181060;23;20064;-76
2023/12/01 03:46:14;;;;;;;24.15;7.38;;;0.70;99.90;;;;;;6180937;23;20016;-76
2023/12/01 03:48:40;;;;;;;20.85;6.63;;;0.80;99.90;;;;;;6177405;23;20005;-76
2023/12/01 03:51:09;;;;;;;20.73;6.13;;;0.80;99.90;;;;;;6178842;23;20019;-77
2023/12/01 03:53:35;;;;;;;27.23;8.33;;;0.80;99.90;;;;;;6177507;23;20343;-75
2023/12/01 03:56:01;;;;;;;25.50;7.57;;;0.80;99.90;;;;;;6178474;23;20016;-77
2023/12/01 03:58:27;;;;;;;21.88;7.70;;;0.80;99.90;;;;;;6177345;23;20009;-76
2023/12/01 04:00:53;;;;;;;23.92;7.65;;;0.80;99.90;;;;;;6179161;23;20005;-76
2023/12/01 04:03:19;;;;;;;25.48;9.32;;;0.80;99.90;;;;;;6179160;23;20001;-76
2023/12/01 04:05:48;;;;;;;26.98;8.27;;;0.80;99.90;;;;;;6180479;23;20009;-77
2023/12/01 04:08:13;;;;;;;21.33;6.75;;;0.90;99.90;;;;;;6178986;23;20064;-75
2023/12/01 04:10:40;;;;;;;19.90;6.68;;;0.80;99.90;;;;;;6179675;23;20005;-76
2023/12/01 04:13:08;;;;;;;25.65;8.82;;;0.90;99.90;;;;;;6178867;23;20013;-75
2023/12/01 04:15:36;;;;;;;25.15;7.63;;;0.90;99.90;;;;;;6179209;23;20227;-77
2023/12/01 04:18:06;;;;;;;20.73;7.20;;;0.90;99.90;;;;;;6178175;23;20009;-76
2023/12/01 04:20:35;;;;;;;20.93;7.60;;;0.90;99.90;;;;;;6177778;23;20096;-76
2023/12/01 04:23:11;;;;;;;32.55;9.95;;;1.00;99.90;;;;;;6179608;23;20011;-76
2023/12/01 04:25:38;;;;;;;28.30;8.95;;;1.00;99.90;;;;;;6177217;23;20005;-76
2023/12/01 04:28:06;;;;;;;24.77;9.35;;;1.00;99.90;;;;;;6178339;23;20013;-76
2023/12/01 04:30:32;;;;;;;24.42;8.10;;;1.00;99.90;;;;;;6178940;23;20063;-76
2023/12/01 04:32:59;;;;;;;23.85;9.05;;;1.10;99.90;;;;;;6180150;23;20082;-77
2023/12/01 04:35:27;;;;;;;24.20;8.88;;;1.00;99.90;;;;;;6178487;23;20163;-76
2023/12/01 04:37:54;;;;;;;30.52;8.82;;;1.00;99.90;;;;;;6180128;23;20320;-76
2023/12/01 04:40:20;;;;;;;24.17;8.85;;;1.00;99.90;;;;;;6179102;23;20197;-75
2023/12/01 04:42:47;;;;;;;24.30;9.40;;;1.10;99.90;;;;;;6179718;23;20825;-76
2023/12/01 04:45:15;;;;;;;27.63;8.45;;;1.00;99.90;;;;;;6178980;23;20084;-76
2023/12/01 04:47:42;;;;;;;29.02;9.23;;;1.10;99.90;;;;;;6177634;23;20009;-76
2023/12/01 04:50:12;;;;;;;29.42;10.55;;;1.10;99.90;;;;;;6180211;23;20064;-77
2023/12/01 04:52:43;;;;;;;29.73;8.43;;;1.10;99.90;;;;;;6179493;23;20013;-76
2023/12/01 04:55:13;;;;;;;22.10;7.55;;;1.10;99.90;;;;;;6180150;23;20080;-75
2023/12/01 04:57:40;;;;;;;24.75;8.05;;;1.10;99.90;;;;;;6178309;23;20096;-77
2023/12/01 05:00:21;;;;;;;26.58;8.48;;;1.10;99.90;;;;;;6177861;23;20066;-76
2023/12/01 05:02:51;;;;;;;25.30;9.05;;;1.10;99.90;;;;;;6177640;23;20009;-77
2023/12/01 05:05:18;;;;;;;23.00;7.63;;;1.10;99.90;;;;;;6179512;23;20059;-77
2023/12/01 05:07:44;;;;;;;25.02;8.68;;;1.10;99.90;;;;;;6178596;23;20013;-77
2023/12/01 05:10:14;;;;;;;32.90;9.35;;;1.10;99.90;;;;;;6179921;23;20011;-76
2023/12/01 05:12:45;;;;;;;28.30;9.40;;;1.20;99.90;;;;;;6179215;23;20335;-78
2023/12/01 05:15:15;;;;;;;27.73;10.45;;;1.20;99.90;;;;;;6178077;23;20036;-76
2023/12/01 05:17:48;;;;;;;24.42;9.32;;;1.20;99.90;;;;;;6177021;23;20009;-76
2023/12/01 05:20:15;;;;;;;27.67;8.77;;;1.20;99.90;;;;;;6178249;23;20009;-76
2023/12/01 05:22:57;;;;;;;27.83;9.10;;;1.20;99.90;;;;;;6177080;23;20059;-76
2023/12/01 05:25:27;;;;;;;30.50;9.50;;;1.30;99.90;;;;;;6178365;23;20017;-76
2023/12/01 05:27:55;;;;;;;24.25;9.23;;;1.30;99.90;;;;;;6179746;23;20023;-76
2023/12/01 05:30:22;;;;;;;26.85;9.40;;;1.30;99.90;;;;;;6175910;23;20092;-76
2023/12/01 05:32:49;;;;;;;25.52;9.02;;;1.30;99.90;;;;;;6178355;23;20009;-75
2023/12/01 05:35:16;;;;;;;25.33;8.75;;;1.30;99.90;;;;;;6180104;23;20117;-77
2023/12/01 05:37:50;;;;;;;23.83;9.52;;;1.30;99.90;;;;;;6176462;23;20009;-76
2023/12/01 05:40:17;;;;;;;31.30;9.30;;;1.30;99.90;;;;;;6177882;23;20473;-76
2023/12/01 05:42:44;;;;;;;26.42;9.65;;;1.30;99.90;;;;;;6176298;23;20009;-76
2023/12/01 05:45:11;;;;;;;26.40;9.55;;;1.40;99.90;;;;;;6179249;23;20009;-76
2023/12/01 05:47:42;;;;;;;28.17;9.60;;;1.40;99.90;;;;;;6178302;23;20100;-76
2023/12/01 05:50:16;;;;;;;27.70;9.98;;;1.40;99.90;;;;;;6179504;23;20036;-76
2023/12/01 05:52:42;;;;;;;26.17;9.10;;;1.40;99.90;;;;;;6177606;23;20013;-76
2023/12/01 05:55:16;;;;;;;25.50;8.73;;;1.40;99.90;;;;;;6179263;23;20033;-76
2023/12/01 05:57:45;;;;;;;29.75;10.50;;;1.40;99.90;;;;;;6178382;23;20025;-76
2023/12/01 06:00:21;;;;;;;24.90;8.20;;;1.40;99.90;;;;;;6181399;23;20013;-76
2023/12/01 06:02:48;;;;;;;24.17;8.07;;;1.40;99.90;;;;;;6181110;23;20016;-74
2023/12/01 06:05:15;;;;;;;24.30;8.70;;;1.40;99.90;;;;;;6181321;23;20009;-76
2023/12/01 06:07:43;;;;;;;24.85;9.05;;;1.50;99.90;;;;;;6178359;23;20012;-76
2023/12/01 06:10:10;;;;;;;23.67;7.75;;;1.50;99.90;;;;;;6181234;23;20013;-76
2023/12/01 06:12:39;;;;;;;20.05;7.65;;;1.50;99.90;;;;;;6180239;23;20029;-76
2023/12/01 06:15:06;;;;;;;26.77;9.25;;;1.40;99.90;;;;;;6179518;23;20020;-76
2023/12/01 06:17:32;;;;;;;28.40;8.73;;;1.40;99.90;;;;;;6180353;23;20013;-76
2023/12/01 06:19:57;;;;;;;27.73;9.25;;;1.40;99.90;;;;;;6179545;23;20365;-77
2023/12/01 06:22:23;;;;;;;25.40;8.50;;;1.40;99.90;;;;;;6178301;23;20037;-75
2023/12/01 06:24:49;;;;;;;27.10;9.52;;;1.40;99.90;;;;;;6181264;23;20064;-76
2023/12/01 06:27:14;;;;;;;25.27;8.93;;;1.50;99.90;;;;;;6179605;23;20019;-75
2023/12/01 06:29:40;;;;;;;27.65;9.20;;;1.50;99.90;;;;;;6177984;23;20024;-77
2023/12/01 06:32:06;;;;;;;25.00;8.25;;;1.50;99.90;;;;;;6181256;23;20367;-77
2023/12/01 06:34:32;;;;;;;25.88;8.07;;;1.50;99.90;;;;;;6178393;23;20009;-77
2023/12/01 06:36:59;;;;;;;23.83;9.00;;;1.50;99.90;;;;;;6179259;23;20005;-76
2023/12/01 06:39:25;;;;;;;30.70;9.73;;;1.50;99.90;;;;;;6177939;23;20410;-78
2023/12/01 06:41:53;;;;;;;27.90;9.30;;;1.50;99.90;;;;;;6179603;23;20089;-76
2023/12/01 06:44:18;;;;;;;24.38;9.07;;;1.50;99.90;;;;;;6181044;23;20009;-76
2023/12/01 06:46:45;;;;;;;30.50;10.48;;;1.50;99.90;;;;;;6179007;23;20362;-76
2023/12/01 06:49:10;;;;;;;24.15;8.48;;;1.60;99.90;;;;;;6180848;23;20009;-76
2023/12/01 06:51:36;;;;;;;24.95;9.50;;;1.50;99.90;;;;;;6177577;23;20013;-76
2023/12/01 06:54:01;;;;;;;31.00;10.25;;;1.60;99.90;;;;;;6179152;23;20009;-76
2023/12/01 06:56:27;;;;;;;32.03;9.43;;;1.60;99.90;;;;;;6179255;23;20462;-77
2023/12/01 06:58:53;;;;;;;29.42;10.18;;;1.60;99.90;;;;;;6179991;23;20016;-76
2023/12/01 07:01:19;;;;;;;26.13;8.77;;;1.60;99.90;;;;;;6180319;23;20013;-76
2023/12/01 07:03:48;;;;;;;29.92;9.55;;;1.50;99.90;;;;;;6175872;23;20439;-76
2023/12/01 07:06:14;;;;;;;24.73;8.60;;;1.50;99.90;;;;;;6180583;23;20013;-76
2023/12/01 07:08:40;;;;;;;24.90;8.68;;;1.50;99.90;;;;;;6176227;23;20009;-76
2023/12/01 07:11:07;;;;;;;28.65;9.82;;;1.50;99.90;;;;;;6180753;23;20005;-76
2023/12/01 07:13:33;;;;;;;31.23;9.38;;;1.50;99.90;;;;;;6179515;23;20024;-76
2023/12/01 07:15:58;;;;;;;24.38;8.70;;;1.60;99.90;;;;;;6179219;23;20001;-75
2023/12/01 07:18:26;;;;;;;25.25;8.57;;;1.50;99.90;;;;;;6177869;23;20013;-77
2023/12/01 07:20:51;;;;;;;26.48;9.27;;;1.50;99.90;;;;;;6180808;23;20017;-75
2023/12/01 07:23:17;;;;;;;26.25;8.45;;;1.50;99.90;;;;;;6180644;23;20031;-76
2023/12/01 07:25:47;;;;;;;26.83;9.27;;;1.60;99.90;;;;;;6178180;23;20009;-76
2023/12/01 07:28:13;;;;;;;24.55;8.15;;;1.60;99.90;;;;;;6178758;23;20047;-76
2023/12/01 07:30:41;;;;;;;24.83;8.85;;;1.50;99.90;;;;;;6179297;23;20013;-76
2023/12/01 07:33:07;;;;;;;23.98;7.88;;;1.60;99.90;;;;;;6180600;23;20023;-77
2023/12/01 07:35:34;;;;;;;23.75;8.75;;;1.60;99.90;;;;;;6179321;23;20079;-76
2023/12/01 07:38:00;;;;;;;25.65;8.63;;;1.60;99.90;;;;;;6178375;23;20017;-75
2023/12/01 07:40:27;;;;;;;31.23;10.18;;;1.50;99.90;;;;;;6177574;23;20017;-76
2023/12/01 07:42:55;;;;;;;29.65;8.82;;;1.60;99.90;;;;;;6178841;23;20009;-75
2023/12/01 07:45:21;;;;;;;24.42;9.55;;;1.60;99.90;;;;;;6177638;23;20722;-78
2023/12/01 07:47:49;;;;;;;31.30;8.65;;;1.60;99.90;;;;;;6180368;23;20140;-74
2023/12/01 07:50:19;;;;;;;26.25;8.70;;;1.60;99.90;;;;;;6176889;23;20012;-76
2023/12/01 07:52:45;;;;;;;23.98;7.65;;;1.60;99.90;;;;;;6177268;23;20009;-77
2023/12/01 07:55:11;;;;;;;24.42;8.57;;;1.60;99.90;;;;;;6176759;23;20067;-76
2023/12/01 07:57:37;;;;;;;22.98;8.68;;;1.60;99.90;;;;;;6176804;23;20020;-76
2023/12/01 08:00:05;;;;;;;28.55;10.70;;;1.60;99.90;;;;;;6178428;23;20064;-76
2023/12/01 08:02:31;;;;;;;23.75;8.30;;;1.60;99.90;;;;;;6177063;23;20009;-76
2023/12/01 08:04:57;;;;;;;21.83;9.02;;;1.60;99.90;;;;;;6178496;23;20104;-76
2023/12/01 08:07:22;;;;;;;24.60;7.78;;;1.70;99.90;;;;;;6176638;23;20017;-76
2023/12/01 08:09:48;;;;;;;21.15;7.35;;;1.60;99.90;;;;;;6176722;23;20039;-76
2023/12/01 08:12:15;;;;;;;22.67;7.10;;;1.70;99.90;;;;;;6174521;23;20012;-76
2023/12/01 08:14:41;;;;;;;20.50;7.28;;;1.70;99.90;;;;;;6176425;23;20439;-76
2023/12/01 08:17:06;;;;;;;21.80;6.95;;;1.70;99.90;;;;;;6178428;22;20012;-76
2023/12/01 08:19:33;;;;;;;24.17;7.47;;;1.60;99.90;;;;;;6177171;23;20024;-76
2023/12/01 08:21:59;;;;;;;23.08;7.85;;;1.60;99.90;;;;;;6176834;23;20016;-76
2023/12/01 08:24:25;;;;;;;18.83;5.82;;;1.60;99.90;;;;;;6175860;23;20116;-76
2023/12/01 08:26:51;;;;;;;17.45;6.35;;;1.60;99.90;;;;;;6179075;22;20023;-76
2023/12/01 08:29:17;;;;;;;23.60;8.07;;;1.60;99.90;;;;;;6176845;23;20088;-76
2023/12/01 08:31:45;;;;;;;21.33;7.68;;;1.50;99.90;;;;;;6174931;22;20058;-76
2023/12/01 08:34:10;;;;;;;24.10;7.45;;;1.60;99.90;;;;;;6179327;23;20071;-75
2023/12/01 08:36:36;;;;;;;21.40;6.55;;;1.50;99.90;;;;;;6175948;23;20013;-77
2023/12/01 08:39:02;;;;;;;25.55;8.50;;;1.50;99.90;;;;;;6176577;22;20005;-77
2023/12/01 08:41:28;;;;;;;22.67;7.60;;;1.50;99.90;;;;;;6174870;23;20005;-76
2023/12/01 08:43:53;;;;;;;18.25;5.75;;;1.50;99.90;;;;;;6175537;23;20076;-76
2023/12/01 08:46:19;;;;;;;27.92;7.35;;;1.50;99.90;;;;;;6176259;23;20313;-76
2023/12/01 08:48:44;;;;;;;21.35;6.38;;;1.60;99.90;;;;;;6174348;23;20682;-76
2023/12/01 08:51:10;;;;;;;18.70;6.53;;;1.50;99.90;;;;;;6175837;23;20027;-77
2023/12/01 08:53:36;;;;;;;20.77;7.88;;;1.50;99.90;;;;;;6172818;23;20072;-76
2023/12/01 08:56:01;;;;;;;16.77;6.43;;;1.50;99.90;;;;;;6178130;23;20002;-76
2023/12/01 08:58:27;;;;;;;17.45;6.63;;;1.50;99.90;;;;;;6174403;23;20040;-76
2023/12/01 09:00:52;;;;;;;19.17;6.47;;;1.40;99.90;;;;;;6176263;23;20065;-76
2023/12/01 09:03:18;;;;;;;20.38;5.95;;;1.50;99.90;;;;;;6175401;23;20325;-76
2023/12/01 09:05:43;;;;;;;20.23;6.15;;;1.50;99.90;;;;;;6176823;23;20052;-76
2023/12/01 09:08:09;;;;;;;18.77;5.68;;;1.40;99.90;;;;;;6175534;23;20115;-76
2023/12/01 09:10:35;;;;;;;18.85;5.80;;;1.50;99.90;;;;;;6174752;23;20017;-76
2023/12/01 09:13:00;;;;;;;19.60;6.93;;;1.50;99.90;;;;;;6175617;23;20017;-76
2023/12/01 09:15:26;;;;;;;17.65;5.88;;;1.50;99.90;;;;;;6176413;23;20021;-77
2023/12/01 09:17:51;;;;;;;21.75;6.07;;;1.60;99.90;;;;;;6175770;23;20017;-75
2023/12/01 09:20:18;;;;;;;24.25;7.25;;;1.60;99.90;;;;;;6177482;23;20016;-76
2023/12/01 09:22:44;;;;;;;18.98;6.80;;;1.60;99.90;;;;;;6176624;23;20031;-76
2023/12/01 09:25:09;;;;;;;21.25;6.43;;;1.50;99.90;;;;;;6175446;23;20009;-76
2023/12/01 09:27:35;;;;;;;18.15;6.28;;;1.60;99.90;;;;;;6174799;23;20052;-76
2023/12/01 09:30:01;;;;;;;15.75;5.20;;;1.50;99.90;;;;;;6175647;23;20019;-76
2023/12/01 09:32:27;;;;;;;15.20;5.70;;;1.50;99.90;;;;;;6174643;23;20101;-76
2023/12/01 09:34:53;;;;;;;18.55;7.03;;;1.50;99.90;;;;;;6175617;23;20016;-77
2023/12/01 09:37:19;;;;;;;19.88;6.88;;;1.50;99.90;;;;;;6177985;23;20005;-77
2023/12/01 09:39:44;;;;;;;18.63;5.85;;;1.50;99.90;;;;;;6176194;23;20013;-76
2023/12/01 09:42:10;;;;;;;18.02;5.80;;;1.60;99.90;;;;;;6177618;23;20103;-76
2023/12/01 09:44:35;;;;;;;15.98;6.22;;;1.60;99.90;;;;;;6176180;23;20091;-75
2023/12/01 09:47:03;;;;;;;16.92;5.75;;;1.50;99.90;;;;;;6177789;23;20059;-76
2023/12/01 09:49:33;;;;;;;18.48;6.72;;;1.50;99.90;;;;;;6173815;23;20021;-76
2023/12/01 09:52:00;;;;;;;17.13;6.18;;;1.50;99.90;;;;;;6177927;23;20009;-76
2023/12/01 09:54:26;;;;;;;18.90;5.05;;;1.60;99.90;;;;;;6174370;23;20407;-76
2023/12/01 09:56:52;;;;;;;20.10;6.90;;;1.50;99.90;;;;;;6177889;23;20009;-76
2023/12/01 09:59:19;;;;;;;13.60;5.78;;;1.50;99.90;;;;;;6177097;23;20155;-76
2023/12/01 10:01:47;;;;;;;17.75;5.80;;;1.50;99.90;;;;;;6174971;23;20013;-78
2023/12/01 10:04:12;;;;;;;22.58;6.88;;;1.50;99.90;;;;;;6175267;23;20009;-76
2023/12/01 10:06:39;;;;;;;17.05;6.18;;;1.40;99.90;;;;;;6176099;23;20017;-75
2023/12/01 10:09:09;;;;;;;21.45;6.25;;;1.40;99.90;;;;;;6177147;23;20006;-76
2023/12/01 10:11:36;;;;;;;15.43;5.60;;;1.40;99.90;;;;;;6174558;23;20013;-75
2023/12/01 10:14:07;;;;;;;16.10;5.82;;;1.50;99.90;;;;;;6175198;23;20077;-76
2023/12/01 10:16:35;;;;;;;18.88;5.60;;;1.40;99.90;;;;;;6173558;23;20013;-76
2023/12/01 10:19:04;;;;;;;22.88;6.53;;;1.50;99.90;;;;;;6177243;23;20115;-76
2023/12/01 10:21:56;;;;;;;18.48;5.30;;;1.60;99.90;;;;;;6173549;23;20016;-75
2023/12/01 10:24:22;;;;;;;19.20;5.43;;;1.60;99.90;;;;;;6171858;23;20012;-77
2023/12/01 10:26:50;;;;;;;16.77;5.68;;;1.60;99.90;;;;;;6176969;23;20389;-76
2023/12/01 10:29:30;;;;;;;24.75;6.25;;;1.60;99.90;;;;;;6177367;23;20758;-76
2023/12/01 10:32:07;;;;;;;16.15;4.35;;;1.60;99.90;;;;;;6176093;23;20019;-75
2023/12/01 10:34:33;;;;;;;17.13;5.25;;;1.70;99.90;;;;;;6176249;23;20024;-75
2023/12/01 10:36:59;;;;;;;17.33;5.90;;;1.70;99.90;;;;;;6175489;23;20012;-76
2023/12/01 10:39:27;;;;;;;19.15;5.72;;;1.70;99.90;;;;;;6173923;23;20021;-76
2023/12/01 10:41:54;;;;;;;19.75;6.38;;;1.70;99.90;;;;;;6177015;23;20017;-76
2023/12/01 10:44:24;;;;;;;14.07;4.95;;;1.70;99.90;;;;;;6177945;23;20032;-76
2023/12/01 10:46:50;;;;;;;18.87;6.10;;;1.70;99.90;;;;;;6177199;23;20005;-78
2023/12/01 10:49:17;;;;;;;18.50;6.50;;;1.80;99.90;;;;;;6178731;23;20013;-75
2023/12/01 10:51:44;;;;;;;22.60;5.25;;;1.80;99.90;;;;;;6178937;23;20005;-77
2023/12/01 10:54:11;;;;;;;16.23;4.55;;;1.90;99.90;;;;;;6178254;23;20009;-75
2023/12/01 10:56:57;;;;;;;15.88;5.32;;;2.10;99.90;;;;;;6178299;23;20009;-76
2023/12/01 10:59:26;;;;;;;14.60;4.90;;;2.00;99.90;;;;;;6180026;23;20045;-76
2023/12/01 11:01:53;;;;;;;18.00;5.03;;;2.20;99.90;;;;;;6179036;23;20005;-76
2023/12/01 11:04:27;;;;;;;16.25;5.18;;;2.20;99.90;;;;;;6179185;23;20431;-76
2023/12/01 11:06:55;;;;;;;23.33;5.95;;;2.20;99.90;;;;;;6176590;23;20722;-77
2023/12/01 11:09:51;;;;;;;14.20;5.30;;;2.20;99.90;;;;;;6176298;23;20032;-75
2023/12/01 11:12:22;;;;;;;16.55;5.22;;;2.30;99.90;;;;;;6180244;23;20017;-76
2023/12/01 11:14:51;;;;;;;19.15;5.75;;;2.40;99.90;;;;;;6177299;23;20016;-76
2023/12/01 11:17:18;;;;;;;14.45;5.00;;;2.50;99.90;;;;;;6179768;23;20099;-75
2023/12/01 11:19:44;;;;;;;20.55;6.18;;;2.40;99.90;;;;;;6178678;23;20016;-77
2023/12/01 11:22:29;;;;;;;14.95;5.75;;;2.50;99.90;;;;;;6179758;23;20348;-77
2023/12/01 11:24:56;;;;;;;14.88;5.68;;;2.50;99.90;;;;;;6179402;23;20036;-76
2023/12/01 11:27:25;;;;;;;15.35;5.40;;;2.50;99.90;;;;;;6178655;23;20025;-76
2023/12/01 11:30:08;;;;;;;18.17;5.28;;;2.40;99.90;;;;;;6177461;23;20012;-75
2023/12/01 11:32:39;;;;;;;17.73;5.03;;;2.30;99.90;;;;;;6177951;23;20023;-75
2023/12/01 11:35:06;;;;;;;13.43;5.28;;;2.20;99.90;;;;;;6166595;23;20013;-77
2023/12/01 11:37:54;;;;;;;13.93;4.63;;;2.10;99.90;;;;;;6176936;23;20102;-75
2023/12/01 11:40:22;;;;;;;16.20;5.80;;;2.00;99.90;;;;;;6178011;23;20020;-76
2023/12/01 11:42:49;;;;;;;15.10;5.82;;;2.00;99.90;;;;;;6179011;23;20013;-76
2023/12/01 11:45:15;;;;;;;16.55;5.75;;;1.90;99.90;;;;;;6179295;23;20017;-76
2023/12/01 11:47:41;;;;;;;14.93;4.55;;;1.80;99.90;;;;;;6176203;23;20020;-76
2023/12/01 11:50:12;;;;;;;18.42;6.45;;;1.90;99.90;;;;;;6179469;23;20009;-77
2023/12/01 11:52:37;;;;;;;;;;;1.90;99.90;;;;;;6177207;23;20017;-76
2023/12/01 11:55:14;;;;;;;14.00;5.45;;;1.90;99.90;;;;;;6179865;23;19970;-76
2023/12/01 11:57:49;;;;;;;14.80;5.60;;;1.90;99.90;;;;;;6178220;23;20092;-74
2023/12/01 12:00:16;;;;;;;17.33;5.47;;;1.90;99.90;;;;;;6179557;23;20009;-77
2023/12/01 12:02:42;;;;;;;17.67;4.82;;;1.80;99.90;;;;;;6177371;23;20016;-76
2023/12/01 12:05:08;;;;;;;18.23;6.07;;;1.90;99.90;;;;;;6178705;23;20351;-76
2023/12/01 12:07:34;;;;;;;13.02;4.55;;;1.90;99.90;;;;;;6175899;23;20347;-76
2023/12/01 12:10:01;;;;;;;14.77;4.60;;;1.90;99.90;;;;;;6177393;23;20666;-76
2023/12/01 12:12:27;;;;;;;14.65;4.60;;;1.90;99.90;;;;;;6178006;23;20021;-76
2023/12/01 12:14:55;;;;;;;11.15;4.20;;;1.80;99.90;;;;;;6179181;23;20013;-76
2023/12/01 12:17:22;;;;;;;11.65;4.15;;;1.80;99.90;;;;;;6176232;23;20009;-77
2023/12/01 12:19:47;;;;;;;11.48;4.50;;;1.70;99.90;;;;;;6178976;23;20017;-76
2023/12/01 12:22:14;;;;;;;12.13;3.90;;;1.70;99.90;;;;;;6179311;23;20040;-76
2023/12/01 12:24:44;;;;;;;15.05;4.63;;;1.70;99.90;;;;;;6176655;23;20013;-76
2023/12/01 12:27:10;;;;;;;10.60;4.30;;;1.70;99.90;;;;;;6179706;23;20023;-76
2023/12/01 12:29:35;;;;;;;12.57;4.03;;;1.70;99.90;;;;;;6176199;23;20025;-76
2023/12/01 12:32:01;;;;;;;14.00;4.18;;;1.60;99.90;;;;;;6177402;23;20024;-77
2023/12/01 12:34:27;;;;;;;12.52;3.85;;;1.70;99.90;;;;;;6177663;23;20320;-76
2023/12/01 12:36:53;;;;;;;14.63;4.40;;;1.70;99.90;;;;;;6177476;23;20084;-76
2023/12/01 12:39:26;;;;;;;10.52;4.10;;;1.70;99.90;;;;;;6177469;23;20043;-76
2023/12/01 12:41:53;;;;;;;10.90;3.90;;;1.70;99.90;;;;;;6175435;23;20016;-76
2023/12/01 12:44:19;;;;;;;10.50;3.45;;;1.70;99.90;;;;;;6175876;23;20013;-76
2023/12/01 12:46:59;;;;;;;14.18;3.72;;;1.70;99.90;;;;;;6176513;23;20009;-76
2023/12/01 12:49:24;;;;;;;11.57;3.83;;;1.80;99.90;;;;;;6176113;23;20048;-76